sensor_id;sensor_type;location;lat;lon;timestamp;temperature;humidity
22167;DHT22;11249;52.468;13.776;2022-08-18T00:00:01;21.90;99.90
22167;DHT22;11249;52.468;13.776;2022-08-18T00:02:29;21.80;99.90
22167;DHT22;11249;52.468;13.776;2022-08-18T00:05:08;21.80;99.90
22167;DHT22;11249;52.468;13.776;2022-08-18T00:07:40;21.80;99.90
22167;DHT22;11249;52.468;13.776;2022-08-18T00:10:13;21.80;99.90
22167;DHT22;11249;52.468;13.776;2022-08-18T00:12:44;21.70;99.90
22167;DHT22;11249;52.468;13.776;2022-08-18T00:15:14;21.70;99.90
22167;DHT22;11249;52.468;13.776;2022-08-18T00:17:47;21.70;99.90
22167;DHT22;11249;52.468;13.776;2022-08-18T00:20:17;21.60;99.90
22167;DHT22;11249;52.468;13.776;2022-08-18T00:22:52;21.60;99.90
22167;DHT22;11249;52.468;13.776;2022-08-18T00:25:19;21.60;99.90
22167;DHT22;11249;52.468;13.776;2022-08-18T00:27:52;21.60;99.90
22167;DHT22;11249;52.468;13.776;2022-08-18T00:30:20;21.60;99.90
22167;DHT22;11249;52.468;13.776;2022-08-18T00:32:53;21.60;99.90
22167;DHT22;11249;52.468;13.776;2022-08-18T00:35:30;21.60;99.90
22167;DHT22;11249;52.468;13.776;2022-08-18T00:38:00;21.50;99.90
22167;DHT22;11249;52.468;13.776;2022-08-18T00:40:50;21.60;99.90
22167;DHT22;11249;52.468;13.776;2022-08-18T00:43:36;21.50;99.90
22167;DHT22;11249;52.468;13.776;2022-08-18T00:46:25;21.60;99.90
22167;DHT22;11249;52.468;13.776;2022-08-18T00:49:06;21.60;99.90
22167;DHT22;11249;52.468;13.776;2022-08-18T00:51:45;21.60;99.90
22167;DHT22;11249;52.468;13.776;2022-08-18T00:54:19;21.60;99.90
22167;DHT22;11249;52.468;13.776;2022-08-18T00:56:59;21.50;99.90
22167;DHT22;11249;52.468;13.776;2022-08-18T00:59:36;21.50;99.90
22167;DHT22;11249;52.468;13.776;2022-08-18T01:02:19;21.50;99.90
22167;DHT22;11249;52.468;13.776;2022-08-18T01:04:56;21.50;99.90
22167;DHT22;11249;52.468;13.776;2022-08-18T01:07:36;21.50;99.90
22167;DHT22;11249;52.468;13.776;2022-08-18T01:10:15;21.50;99.90
22167;DHT22;11249;52.468;13.776;2022-08-18T01:12:48;21.50;99.90
22167;DHT22;11249;52.468;13.776;2022-08-18T01:15:23;21.50;99.90
22167;DHT22;11249;52.468;13.776;2022-08-18T01:17:56;21.40;99.90
22167;DHT22;11249;52.468;13.776;2022-08-18T01:21:04;21.40;99.90
22167;DHT22;11249;52.468;13.776;2022-08-18T01:23:53;21.40;99.90
22167;DHT22;11249;52.468;13.776;2022-08-18T01:26:28;21.40;99.90
22167;DHT22;11249;52.468;13.776;2022-08-18T01:29:09;21.40;99.90
22167;DHT22;11249;52.468;13.776;2022-08-18T01:31:48;21.40;99.90
22167;DHT22;11249;52.468;13.776;2022-08-18T01:34:25;21.30;99.90
22167;DHT22;11249;52.468;13.776;2022-08-18T01:36:53;21.30;99.90
22167;DHT22;11249;52.468;13.776;2022-08-18T01:39:21;21.30;99.90
22167;DHT22;11249;52.468;13.776;2022-08-18T01:42:15;21.20;99.90
22167;DHT22;11249;52.468;13.776;2022-08-18T01:44:44;21.20;99.90
22167;DHT22;11249;52.468;13.776;2022-08-18T01:47:17;21.10;99.90
22167;DHT22;11249;52.468;13.776;2022-08-18T01:49:51;21.10;99.90
22167;DHT22;11249;52.468;13.776;2022-08-18T01:52:26;21.10;99.90
22167;DHT22;11249;52.468;13.776;2022-08-18T01:54:55;21.10;99.90
22167;DHT22;11249;52.468;13.776;2022-08-18T01:57:23;21.00;99.90
22167;DHT22;11249;52.468;13.776;2022-08-18T01:59:56;21.00;99.90
22167;DHT22;11249;52.468;13.776;2022-08-18T02:02:29;20.90;99.90
22167;DHT22;11249;52.468;13.776;2022-08-18T02:05:10;20.80;99.90
22167;DHT22;11249;52.468;13.776;2022-08-18T02:07:37;20.80;99.90
22167;DHT22;11249;52.468;13.776;2022-08-18T02:10:11;20.80;99.90
22167;DHT22;11249;52.468;13.776;2022-08-18T02:12:42;20.70;99.90
22167;DHT22;11249;52.468;13.776;2022-08-18T02:15:15;20.70;99.90
22167;DHT22;11249;52.468;13.776;2022-08-18T02:17:44;20.70;99.90
22167;DHT22;11249;52.468;13.776;2022-08-18T02:20:18;20.60;99.90
22167;DHT22;11249;52.468;13.776;2022-08-18T02:22:48;20.60;99.90
22167;DHT22;11249;52.468;13.776;2022-08-18T02:25:16;20.60;99.90
22167;DHT22;11249;52.468;13.776;2022-08-18T02:27:49;20.60;99.90
22167;DHT22;11249;52.468;13.776;2022-08-18T02:30:18;20.50;99.90
22167;DHT22;11249;52.468;13.776;2022-08-18T02:32:51;20.50;99.90
22167;DHT22;11249;52.468;13.776;2022-08-18T02:35:24;20.40;99.90
22167;DHT22;11249;52.468;13.776;2022-08-18T02:37:51;20.40;99.90
22167;DHT22;11249;52.468;13.776;2022-08-18T02:40:24;20.40;99.90
22167;DHT22;11249;52.468;13.776;2022-08-18T02:42:51;20.40;99.90
22167;DHT22;11249;52.468;13.776;2022-08-18T02:45:31;20.40;99.90
22167;DHT22;11249;52.468;13.776;2022-08-18T02:48:11;20.50;99.90
22167;DHT22;11249;52.468;13.776;2022-08-18T02:50:44;20.40;99.90
22167;DHT22;11249;52.468;13.776;2022-08-18T02:53:14;20.40;99.90
22167;DHT22;11249;52.468;13.776;2022-08-18T02:55:55;20.40;99.90
22167;DHT22;11249;52.468;13.776;2022-08-18T02:58:35;20.40;99.90
22167;DHT22;11249;52.468;13.776;2022-08-18T03:01:02;20.40;99.90
22167;DHT22;11249;52.468;13.776;2022-08-18T03:03:28;20.40;99.90
22167;DHT22;11249;52.468;13.776;2022-08-18T03:06:04;20.30;99.90
22167;DHT22;11249;52.468;13.776;2022-08-18T03:08:38;20.30;99.90
22167;DHT22;11249;52.468;13.776;2022-08-18T03:11:05;20.30;99.90
22167;DHT22;11249;52.468;13.776;2022-08-18T03:13:31;20.20;99.90
22167;DHT22;11249;52.468;13.776;2022-08-18T03:16:04;20.20;99.90
22167;DHT22;11249;52.468;13.776;2022-08-18T03:18:31;20.20;99.90
22167;DHT22;11249;52.468;13.776;2022-08-18T03:20:57;20.20;99.90
22167;DHT22;11249;52.468;13.776;2022-08-18T03:23:39;20.10;99.90
22167;DHT22;11249;52.468;13.776;2022-08-18T03:26:28;20.10;99.90
22167;DHT22;11249;52.468;13.776;2022-08-18T03:28:56;20.10;99.90
22167;DHT22;11249;52.468;13.776;2022-08-18T03:31:29;20.00;99.90
22167;DHT22;11249;52.468;13.776;2022-08-18T03:34:00;20.00;99.90
22167;DHT22;11249;52.468;13.776;2022-08-18T03:36:29;20.00;99.90
22167;DHT22;11249;52.468;13.776;2022-08-18T03:39:06;20.00;99.90
22167;DHT22;11249;52.468;13.776;2022-08-18T03:41:33;19.90;99.90
22167;DHT22;11249;52.468;13.776;2022-08-18T03:44:30;19.90;99.90
22167;DHT22;11249;52.468;13.776;2022-08-18T03:47:08;19.90;99.90
22167;DHT22;11249;52.468;13.776;2022-08-18T03:49:42;19.80;99.90
22167;DHT22;11249;52.468;13.776;2022-08-18T03:52:09;19.90;99.90
22167;DHT22;11249;52.468;13.776;2022-08-18T03:54:43;19.80;99.90
22167;DHT22;11249;52.468;13.776;2022-08-18T03:57:11;19.80;99.90
22167;DHT22;11249;52.468;13.776;2022-08-18T03:59:38;19.80;99.90
22167;DHT22;11249;52.468;13.776;2022-08-18T04:02:13;19.80;99.90
22167;DHT22;11249;52.468;13.776;2022-08-18T04:04:40;19.80;99.90
22167;DHT22;11249;52.468;13.776;2022-08-18T04:07:16;19.70;99.90
22167;DHT22;11249;52.468;13.776;2022-08-18T04:09:44;19.70;99.90
22167;DHT22;11249;52.468;13.776;2022-08-18T04:12:17;19.70;99.90
22167;DHT22;11249;52.468;13.776;2022-08-18T04:14:47;19.70;99.90
22167;DHT22;11249;52.468;13.776;2022-08-18T04:17:16;19.70;99.90
22167;DHT22;11249;52.468;13.776;2022-08-18T04:19:55;19.70;99.90
22167;DHT22;11249;52.468;13.776;2022-08-18T04:22:29;19.80;99.90
22167;DHT22;11249;52.468;13.776;2022-08-18T04:24:59;19.70;99.90
22167;DHT22;11249;52.468;13.776;2022-08-18T04:27:29;19.80;99.90
22167;DHT22;11249;52.468;13.776;2022-08-18T04:30:02;19.80;99.90
22167;DHT22;11249;52.468;13.776;2022-08-18T04:32:30;19.80;99.90
22167;DHT22;11249;52.468;13.776;2022-08-18T04:35:04;19.80;99.90
22167;DHT22;11249;52.468;13.776;2022-08-18T04:37:37;19.80;99.90
22167;DHT22;11249;52.468;13.776;2022-08-18T04:40:10;19.90;99.90
22167;DHT22;11249;52.468;13.776;2022-08-18T04:42:39;19.90;99.90
22167;DHT22;11249;52.468;13.776;2022-08-18T04:45:12;20.00;99.90
22167;DHT22;11249;52.468;13.776;2022-08-18T04:47:52;20.00;99.90
22167;DHT22;11249;52.468;13.776;2022-08-18T04:50:25;20.00;99.90
22167;DHT22;11249;52.468;13.776;2022-08-18T04:52:58;20.10;99.90
22167;DHT22;11249;52.468;13.776;2022-08-18T04:55:52;20.20;99.90
22167;DHT22;11249;52.468;13.776;2022-08-18T04:58:25;20.20;99.90
22167;DHT22;11249;52.468;13.776;2022-08-18T05:00:57;20.30;99.90
22167;DHT22;11249;52.468;13.776;2022-08-18T05:03:24;20.30;99.90
22167;DHT22;11249;52.468;13.776;2022-08-18T05:05:58;20.40;99.90
22167;DHT22;11249;52.468;13.776;2022-08-18T05:08:25;20.50;99.90
22167;DHT22;11249;52.468;13.776;2022-08-18T05:10:54;20.60;99.90
22167;DHT22;11249;52.468;13.776;2022-08-18T05:13:29;20.60;99.90
22167;DHT22;11249;52.468;13.776;2022-08-18T05:15:57;20.70;99.90
22167;DHT22;11249;52.468;13.776;2022-08-18T05:18:43;20.80;99.90
22167;DHT22;11249;52.468;13.776;2022-08-18T05:21:18;20.90;99.90
22167;DHT22;11249;52.468;13.776;2022-08-18T05:23:46;21.00;99.90
22167;DHT22;11249;52.468;13.776;2022-08-18T05:26:20;21.10;99.90
22167;DHT22;11249;52.468;13.776;2022-08-18T05:28:53;21.20;99.90
22167;DHT22;11249;52.468;13.776;2022-08-18T05:31:44;21.30;99.90
22167;DHT22;11249;52.468;13.776;2022-08-18T05:34:11;21.40;99.90
22167;DHT22;11249;52.468;13.776;2022-08-18T05:36:57;21.50;99.90
22167;DHT22;11249;52.468;13.776;2022-08-18T05:39:39;21.60;99.90
22167;DHT22;11249;52.468;13.776;2022-08-18T05:42:17;21.70;99.90
22167;DHT22;11249;52.468;13.776;2022-08-18T05:44:54;21.80;99.90
22167;DHT22;11249;52.468;13.776;2022-08-18T05:47:34;22.00;99.90
22167;DHT22;11249;52.468;13.776;2022-08-18T05:50:12;22.10;99.90
22167;DHT22;11249;52.468;13.776;2022-08-18T05:52:53;22.20;99.90
22167;DHT22;11249;52.468;13.776;2022-08-18T05:55:36;22.30;99.90
22167;DHT22;11249;52.468;13.776;2022-08-18T05:58:34;22.40;99.90
22167;DHT22;11249;52.468;13.776;2022-08-18T06:01:16;22.40;99.90
22167;DHT22;11249;52.468;13.776;2022-08-18T06:03:52;22.50;99.90
22167;DHT22;11249;52.468;13.776;2022-08-18T06:06:28;22.60;99.90
22167;DHT22;11249;52.468;13.776;2022-08-18T06:09:04;22.60;99.90
22167;DHT22;11249;52.468;13.776;2022-08-18T06:11:40;22.70;99.90
22167;DHT22;11249;52.468;13.776;2022-08-18T06:14:08;22.80;99.90
22167;DHT22;11249;52.468;13.776;2022-08-18T06:20:02;22.90;99.90
22167;DHT22;11249;52.468;13.776;2022-08-18T06:26:06;23.00;99.90
22167;DHT22;11249;52.468;13.776;2022-08-18T06:28:47;23.10;99.90
22167;DHT22;11249;52.468;13.776;2022-08-18T06:32:19;23.20;99.90
22167;DHT22;11249;52.468;13.776;2022-08-18T06:35:01;23.30;99.90
22167;DHT22;11249;52.468;13.776;2022-08-18T06:37:44;23.40;99.90
22167;DHT22;11249;52.468;13.776;2022-08-18T06:40:38;23.50;99.90
22167;DHT22;11249;52.468;13.776;2022-08-18T06:43:13;23.60;99.90
22167;DHT22;11249;52.468;13.776;2022-08-18T06:45:48;23.70;99.90
22167;DHT22;11249;52.468;13.776;2022-08-18T06:49:17;23.80;99.90
22167;DHT22;11249;52.468;13.776;2022-08-18T06:51:26;23.90;99.90
22167;DHT22;11249;52.468;13.776;2022-08-18T06:59:42;24.30;99.90
22167;DHT22;11249;52.468;13.776;2022-08-18T07:02:25;24.40;99.90
22167;DHT22;11249;52.468;13.776;2022-08-18T07:05:04;24.50;99.90
22167;DHT22;11249;52.468;13.776;2022-08-18T07:07:40;24.60;99.90
22167;DHT22;11249;52.468;13.776;2022-08-18T07:10:30;24.70;99.90
22167;DHT22;11249;52.468;13.776;2022-08-18T07:15:43;24.80;99.90
22167;DHT22;11249;52.468;13.776;2022-08-18T07:18:26;24.80;99.90
22167;DHT22;11249;52.468;13.776;2022-08-18T07:21:00;24.90;99.90
22167;DHT22;11249;52.468;13.776;2022-08-18T07:23:37;25.00;99.90
22167;DHT22;11249;52.468;13.776;2022-08-18T07:26:28;25.00;99.90
22167;DHT22;11249;52.468;13.776;2022-08-18T07:29:14;25.10;99.90
22167;DHT22;11249;52.468;13.776;2022-08-18T07:31:45;25.10;99.90
22167;DHT22;11249;52.468;13.776;2022-08-18T07:37:13;25.30;99.90
22167;DHT22;11249;52.468;13.776;2022-08-18T07:40:13;25.50;99.90
22167;DHT22;11249;52.468;13.776;2022-08-18T07:42:57;25.70;99.90
22167;DHT22;11249;52.468;13.776;2022-08-18T07:45:42;25.80;99.90
22167;DHT22;11249;52.468;13.776;2022-08-18T07:48:31;25.90;99.90
22167;DHT22;11249;52.468;13.776;2022-08-18T07:51:28;26.10;99.90
22167;DHT22;11249;52.468;13.776;2022-08-18T07:54:25;26.20;99.90
22167;DHT22;11249;52.468;13.776;2022-08-18T07:57:42;26.30;99.90
22167;DHT22;11249;52.468;13.776;2022-08-18T08:03:35;26.50;99.90
22167;DHT22;11249;52.468;13.776;2022-08-18T08:06:23;26.70;99.90
22167;DHT22;11249;52.468;13.776;2022-08-18T08:09:25;26.80;99.90
22167;DHT22;11249;52.468;13.776;2022-08-18T08:11:58;26.80;99.90
22167;DHT22;11249;52.468;13.776;2022-08-18T08:14:39;26.90;99.90
22167;DHT22;11249;52.468;13.776;2022-08-18T08:20:08;27.00;99.90
22167;DHT22;11249;52.468;13.776;2022-08-18T08:31:44;27.00;99.90
22167;DHT22;11249;52.468;13.776;2022-08-18T08:34:38;27.10;99.90
22167;DHT22;11249;52.468;13.776;2022-08-18T08:37:17;27.30;99.90
22167;DHT22;11249;52.468;13.776;2022-08-18T08:40:00;27.50;99.90
22167;DHT22;11249;52.468;13.776;2022-08-18T08:42:57;27.30;99.90
22167;DHT22;11249;52.468;13.776;2022-08-18T08:45:36;27.50;99.90
22167;DHT22;11249;52.468;13.776;2022-08-18T08:48:20;27.70;99.90
22167;DHT22;11249;52.468;13.776;2022-08-18T08:54:18;27.80;99.90
22167;DHT22;11249;52.468;13.776;2022-08-18T08:56:54;28.10;99.90
22167;DHT22;11249;52.468;13.776;2022-08-18T08:59:28;28.40;99.90
22167;DHT22;11249;52.468;13.776;2022-08-18T09:05:47;28.60;99.90
22167;DHT22;11249;52.468;13.776;2022-08-18T09:09:02;28.80;99.90
22167;DHT22;11249;52.468;13.776;2022-08-18T09:12:01;29.00;99.90
22167;DHT22;11249;52.468;13.776;2022-08-18T09:17:59;29.20;99.90
22167;DHT22;11249;52.468;13.776;2022-08-18T09:20:54;29.30;99.90
22167;DHT22;11249;52.468;13.776;2022-08-18T09:23:44;29.40;99.90
22167;DHT22;11249;52.468;13.776;2022-08-18T09:29:12;29.70;99.90
22167;DHT22;11249;52.468;13.776;2022-08-18T09:31:46;29.80;99.90
22167;DHT22;11249;52.468;13.776;2022-08-18T09:34:24;29.90;99.90
22167;DHT22;11249;52.468;13.776;2022-08-18T09:37:21;30.00;99.90
22167;DHT22;11249;52.468;13.776;2022-08-18T09:39:54;30.10;99.90
22167;DHT22;11249;52.468;13.776;2022-08-18T09:43:20;30.10;99.90
22167;DHT22;11249;52.468;13.776;2022-08-18T09:45:59;30.10;99.90
22167;DHT22;11249;52.468;13.776;2022-08-18T09:48:39;30.10;99.90
22167;DHT22;11249;52.468;13.776;2022-08-18T10:02:08;30.80;99.90
22167;DHT22;11249;52.468;13.776;2022-08-18T10:04:49;31.00;99.90
22167;DHT22;11249;52.468;13.776;2022-08-18T10:10:59;31.20;99.90
22167;DHT22;11249;52.468;13.776;2022-08-18T10:14:11;31.30;99.90
22167;DHT22;11249;52.468;13.776;2022-08-18T10:17:07;31.30;99.90
22167;DHT22;11249;52.468;13.776;2022-08-18T10:22:53;31.50;99.90
22167;DHT22;11249;52.468;13.776;2022-08-18T10:25:41;31.70;99.90
22167;DHT22;11249;52.468;13.776;2022-08-18T10:28:10;31.80;99.90
22167;DHT22;11249;52.468;13.776;2022-08-18T10:31:05;31.90;99.90
22167;DHT22;11249;52.468;13.776;2022-08-18T10:36:55;32.00;99.90
22167;DHT22;11249;52.468;13.776;2022-08-18T10:39:55;32.10;99.90
22167;DHT22;11249;52.468;13.776;2022-08-18T10:42:41;32.40;99.90
22167;DHT22;11249;52.468;13.776;2022-08-18T10:45:22;32.60;99.90
22167;DHT22;11249;52.468;13.776;2022-08-18T10:50:50;32.80;99.90
22167;DHT22;11249;52.468;13.776;2022-08-18T10:53:53;33.00;99.90
22167;DHT22;11249;52.468;13.776;2022-08-18T10:56:50;33.10;99.90
22167;DHT22;11249;52.468;13.776;2022-08-18T10:59:45;33.20;99.90
22167;DHT22;11249;52.468;13.776;2022-08-18T11:02:55;33.30;99.90
22167;DHT22;11249;52.468;13.776;2022-08-18T11:05:46;33.50;99.90
22167;DHT22;11249;52.468;13.776;2022-08-18T11:08:21;33.80;99.90
22167;DHT22;11249;52.468;13.776;2022-08-18T11:10:52;34.00;99.90
22167;DHT22;11249;52.468;13.776;2022-08-18T11:14:29;34.30;99.90
22167;DHT22;11249;52.468;13.776;2022-08-18T11:17:15;34.50;99.60
22167;DHT22;11249;52.468;13.776;2022-08-18T11:19:47;34.60;99.30
22167;DHT22;11249;52.468;13.776;2022-08-18T11:22:25;35.00;99.70
22167;DHT22;11249;52.468;13.776;2022-08-18T11:25:00;35.10;99.00
22167;DHT22;11249;52.468;13.776;2022-08-18T11:27:45;35.50;99.10
22167;DHT22;11249;52.468;13.776;2022-08-18T11:30:19;35.80;97.70
22167;DHT22;11249;52.468;13.776;2022-08-18T11:32:57;36.10;96.90
22167;DHT22;11249;52.468;13.776;2022-08-18T11:38:36;36.20;96.30
22167;DHT22;11249;52.468;13.776;2022-08-18T11:41:19;36.00;95.20
22167;DHT22;11249;52.468;13.776;2022-08-18T11:44:22;35.70;95.40
22167;DHT22;11249;52.468;13.776;2022-08-18T11:47:19;35.90;95.80
22167;DHT22;11249;52.468;13.776;2022-08-18T11:50:10;35.90;95.30
22167;DHT22;11249;52.468;13.776;2022-08-18T11:52:47;35.70;95.00
22167;DHT22;11249;52.468;13.776;2022-08-18T11:55:30;35.60;94.80
22167;DHT22;11249;52.468;13.776;2022-08-18T11:58:37;35.50;95.10
22167;DHT22;11249;52.468;13.776;2022-08-18T12:01:04;35.30;94.50
22167;DHT22;11249;52.468;13.776;2022-08-18T12:03:44;35.30;95.70
22167;DHT22;11249;52.468;13.776;2022-08-18T12:06:26;35.20;95.10
22167;DHT22;11249;52.468;13.776;2022-08-18T12:09:14;35.20;95.40
22167;DHT22;11249;52.468;13.776;2022-08-18T12:12:23;35.20;95.70
22167;DHT22;11249;52.468;13.776;2022-08-18T12:15:19;35.20;95.20
22167;DHT22;11249;52.468;13.776;2022-08-18T12:17:51;35.40;95.10
22167;DHT22;11249;52.468;13.776;2022-08-18T12:20:25;35.40;95.40
22167;DHT22;11249;52.468;13.776;2022-08-18T12:22:55;35.50;94.50
22167;DHT22;11249;52.468;13.776;2022-08-18T12:25:22;35.60;94.40
22167;DHT22;11249;52.468;13.776;2022-08-18T12:27:56;35.60;94.50
22167;DHT22;11249;52.468;13.776;2022-08-18T12:30:23;35.70;94.30
22167;DHT22;11249;52.468;13.776;2022-08-18T12:32:51;35.60;94.50
22167;DHT22;11249;52.468;13.776;2022-08-18T12:35:38;35.60;94.90
22167;DHT22;11249;52.468;13.776;2022-08-18T12:38:07;35.30;94.30
22167;DHT22;11249;52.468;13.776;2022-08-18T12:40:42;35.00;95.10
22167;DHT22;11249;52.468;13.776;2022-08-18T12:43:09;34.90;95.20
22167;DHT22;11249;52.468;13.776;2022-08-18T12:45:36;34.90;95.30
22167;DHT22;11249;52.468;13.776;2022-08-18T12:48:16;34.70;95.10
22167;DHT22;11249;52.468;13.776;2022-08-18T12:50:49;34.20;96.30
22167;DHT22;11249;52.468;13.776;2022-08-18T12:53:42;34.20;96.80
22167;DHT22;11249;52.468;13.776;2022-08-18T12:56:29;34.00;97.50
22167;DHT22;11249;52.468;13.776;2022-08-18T12:59:05;34.20;97.70
22167;DHT22;11249;52.468;13.776;2022-08-18T13:01:35;34.30;97.20
22167;DHT22;11249;52.468;13.776;2022-08-18T13:04:09;34.60;97.20
22167;DHT22;11249;52.468;13.776;2022-08-18T13:06:47;34.40;96.90
22167;DHT22;11249;52.468;13.776;2022-08-18T13:09:31;34.60;97.30
22167;DHT22;11249;52.468;13.776;2022-08-18T13:12:14;34.60;97.30
22167;DHT22;11249;52.468;13.776;2022-08-18T13:14:49;34.40;96.90
22167;DHT22;11249;52.468;13.776;2022-08-18T13:17:17;34.30;97.10
22167;DHT22;11249;52.468;13.776;2022-08-18T13:20:04;34.30;97.80
22167;DHT22;11249;52.468;13.776;2022-08-18T13:22:39;34.10;98.60
22167;DHT22;11249;52.468;13.776;2022-08-18T13:25:15;33.90;99.90
22167;DHT22;11249;52.468;13.776;2022-08-18T13:28:03;33.80;99.90
22167;DHT22;11249;52.468;13.776;2022-08-18T13:30:39;33.20;99.90
22167;DHT22;11249;52.468;13.776;2022-08-18T13:33:08;33.00;99.90
22167;DHT22;11249;52.468;13.776;2022-08-18T13:35:55;32.80;99.90
22167;DHT22;11249;52.468;13.776;2022-08-18T13:38:28;32.60;99.90
22167;DHT22;11249;52.468;13.776;2022-08-18T13:40:57;32.40;99.90
22167;DHT22;11249;52.468;13.776;2022-08-18T13:43:35;32.20;99.90
22167;DHT22;11249;52.468;13.776;2022-08-18T13:46:05;31.90;99.90
22167;DHT22;11249;52.468;13.776;2022-08-18T13:48:41;31.90;99.90
22167;DHT22;11249;52.468;13.776;2022-08-18T13:51:22;31.80;99.90
22167;DHT22;11249;52.468;13.776;2022-08-18T13:53:56;31.50;99.90
22167;DHT22;11249;52.468;13.776;2022-08-18T13:56:43;31.50;99.90
22167;DHT22;11249;52.468;13.776;2022-08-18T13:59:19;31.40;99.90
22167;DHT22;11249;52.468;13.776;2022-08-18T14:01:49;31.30;99.90
22167;DHT22;11249;52.468;13.776;2022-08-18T14:04:23;31.50;99.90
22167;DHT22;11249;52.468;13.776;2022-08-18T14:06:54;31.90;99.90
22167;DHT22;11249;52.468;13.776;2022-08-18T14:09:25;32.50;99.90
22167;DHT22;11249;52.468;13.776;2022-08-18T14:12:18;33.10;99.90
22167;DHT22;11249;52.468;13.776;2022-08-18T14:14:49;33.50;99.90
22167;DHT22;11249;52.468;13.776;2022-08-18T14:17:23;33.50;99.90
22167;DHT22;11249;52.468;13.776;2022-08-18T14:19:52;33.40;99.90
22167;DHT22;11249;52.468;13.776;2022-08-18T14:22:54;33.50;99.90
22167;DHT22;11249;52.468;13.776;2022-08-18T14:25:47;33.80;99.90
22167;DHT22;11249;52.468;13.776;2022-08-18T14:28:39;34.20;99.90
22167;DHT22;11249;52.468;13.776;2022-08-18T14:31:07;34.90;99.90
22167;DHT22;11249;52.468;13.776;2022-08-18T14:33:46;34.80;99.90
22167;DHT22;11249;52.468;13.776;2022-08-18T14:36:17;34.70;99.90
22167;DHT22;11249;52.468;13.776;2022-08-18T14:38:57;34.50;99.90
22167;DHT22;11249;52.468;13.776;2022-08-18T14:41:34;34.00;99.90
22167;DHT22;11249;52.468;13.776;2022-08-18T14:44:06;33.80;99.90
22167;DHT22;11249;52.468;13.776;2022-08-18T14:46:53;34.00;99.90
22167;DHT22;11249;52.468;13.776;2022-08-18T14:49:33;34.00;99.90
22167;DHT22;11249;52.468;13.776;2022-08-18T14:52:13;33.90;99.90
22167;DHT22;11249;52.468;13.776;2022-08-18T14:54:46;33.70;99.90
22167;DHT22;11249;52.468;13.776;2022-08-18T14:57:17;33.70;99.90
22167;DHT22;11249;52.468;13.776;2022-08-18T14:59:44;33.60;99.90
22167;DHT22;11249;52.468;13.776;2022-08-18T15:02:22;33.70;99.90
22167;DHT22;11249;52.468;13.776;2022-08-18T15:04:50;33.70;99.90
22167;DHT22;11249;52.468;13.776;2022-08-18T15:07:24;33.70;99.90
22167;DHT22;11249;52.468;13.776;2022-08-18T15:09:58;33.60;99.90
22167;DHT22;11249;52.468;13.776;2022-08-18T15:12:43;33.10;99.90
22167;DHT22;11249;52.468;13.776;2022-08-18T15:15:12;32.50;99.90
22167;DHT22;11249;52.468;13.776;2022-08-18T15:17:48;32.30;99.90
22167;DHT22;11249;52.468;13.776;2022-08-18T15:20:19;31.50;99.90
22167;DHT22;11249;52.468;13.776;2022-08-18T15:22:59;31.00;99.90
22167;DHT22;11249;52.468;13.776;2022-08-18T15:25:51;30.80;99.90
22167;DHT22;11249;52.468;13.776;2022-08-18T15:28:24;30.40;99.90
22167;DHT22;11249;52.468;13.776;2022-08-18T15:30:53;30.10;99.90
22167;DHT22;11249;52.468;13.776;2022-08-18T15:33:43;29.90;99.90
22167;DHT22;11249;52.468;13.776;2022-08-18T15:36:17;29.40;99.90
22167;DHT22;11249;52.468;13.776;2022-08-18T15:38:54;29.20;99.90
22167;DHT22;11249;52.468;13.776;2022-08-18T15:41:34;28.80;99.90
22167;DHT22;11249;52.468;13.776;2022-08-18T15:44:11;28.50;99.90
22167;DHT22;11249;52.468;13.776;2022-08-18T15:46:52;27.60;99.90
22167;DHT22;11249;52.468;13.776;2022-08-18T15:49:35;27.30;99.90
22167;DHT22;11249;52.468;13.776;2022-08-18T15:52:12;26.80;99.90
22167;DHT22;11249;52.468;13.776;2022-08-18T15:54:43;26.50;99.90
22167;DHT22;11249;52.468;13.776;2022-08-18T15:57:17;26.30;99.90
22167;DHT22;11249;52.468;13.776;2022-08-18T16:00:04;26.10;99.90
22167;DHT22;11249;52.468;13.776;2022-08-18T16:02:39;25.80;99.90
22167;DHT22;11249;52.468;13.776;2022-08-18T16:05:10;25.50;99.90
22167;DHT22;11249;52.468;13.776;2022-08-18T16:07:47;25.30;99.90
22167;DHT22;11249;52.468;13.776;2022-08-18T16:10:15;25.00;99.90
22167;DHT22;11249;52.468;13.776;2022-08-18T16:12:43;24.60;99.90
22167;DHT22;11249;52.468;13.776;2022-08-18T16:15:19;24.40;99.90
22167;DHT22;11249;52.468;13.776;2022-08-18T16:17:54;24.00;99.90
22167;DHT22;11249;52.468;13.776;2022-08-18T16:20:23;23.80;99.90
22167;DHT22;11249;52.468;13.776;2022-08-18T16:22:57;23.40;99.90
22167;DHT22;11249;52.468;13.776;2022-08-18T16:25:24;22.90;99.90
22167;DHT22;11249;52.468;13.776;2022-08-18T16:27:58;22.80;99.90
22167;DHT22;11249;52.468;13.776;2022-08-18T16:30:31;22.80;99.90
22167;DHT22;11249;52.468;13.776;2022-08-18T16:33:00;22.70;99.90
22167;DHT22;11249;52.468;13.776;2022-08-18T16:35:29;22.70;99.90
22167;DHT22;11249;52.468;13.776;2022-08-18T16:38:05;22.60;99.90
22167;DHT22;11249;52.468;13.776;2022-08-18T16:40:40;22.60;99.90
22167;DHT22;11249;52.468;13.776;2022-08-18T16:43:07;22.60;99.90
22167;DHT22;11249;52.468;13.776;2022-08-18T16:45:41;22.50;99.90
22167;DHT22;11249;52.468;13.776;2022-08-18T16:48:14;22.50;99.90
22167;DHT22;11249;52.468;13.776;2022-08-18T16:50:48;22.60;99.90
22167;DHT22;11249;52.468;13.776;2022-08-18T16:53:23;22.60;99.90
22167;DHT22;11249;52.468;13.776;2022-08-18T16:55:51;22.70;99.90
22167;DHT22;11249;52.468;13.776;2022-08-18T16:58:17;22.60;99.90
22167;DHT22;11249;52.468;13.776;2022-08-18T17:01:09;22.60;99.90
22167;DHT22;11249;52.468;13.776;2022-08-18T17:04:18;22.60;99.90
22167;DHT22;11249;52.468;13.776;2022-08-18T17:06:51;22.60;99.90
22167;DHT22;11249;52.468;13.776;2022-08-18T17:09:19;22.60;99.90
22167;DHT22;11249;52.468;13.776;2022-08-18T17:11:47;22.60;99.90
22167;DHT22;11249;52.468;13.776;2022-08-18T17:14:23;22.60;99.90
22167;DHT22;11249;52.468;13.776;2022-08-18T17:16:57;22.50;99.90
22167;DHT22;11249;52.468;13.776;2022-08-18T17:19:26;22.50;99.90
22167;DHT22;11249;52.468;13.776;2022-08-18T17:21:56;22.40;99.90
22167;DHT22;11249;52.468;13.776;2022-08-18T17:24:30;22.30;99.90
22167;DHT22;11249;52.468;13.776;2022-08-18T17:27:20;22.30;99.90
22167;DHT22;11249;52.468;13.776;2022-08-18T17:30:11;22.20;99.90
22167;DHT22;11249;52.468;13.776;2022-08-18T17:35:37;22.20;99.90
22167;DHT22;11249;52.468;13.776;2022-08-18T17:38:26;22.20;99.90